sensor_id;sensor_type;location;lat;lon;timestamp;P1;durP1;ratioP1;P2;durP2;ratioP2
15818;SDS011;8010;53.986;12.106;2023-03-30T00:00:19;8.63;;;5.67;;
15818;SDS011;8010;53.986;12.106;2023-03-30T00:02:47;8.80;;;5.77;;
15818;SDS011;8010;53.986;12.106;2023-03-30T00:05:17;8.00;;;5.20;;
15818;SDS011;8010;53.986;12.106;2023-03-30T00:07:42;8.13;;;5.83;;
15818;SDS011;8010;53.986;12.106;2023-03-30T00:10:12;10.27;;;6.00;;
15818;SDS011;8010;53.986;12.106;2023-03-30T00:12:41;7.90;;;5.43;;
15818;SDS011;8010;53.986;12.106;2023-03-30T00:15:09;7.87;;;5.80;;
15818;SDS011;8010;53.986;12.106;2023-03-30T00:17:36;9.17;;;6.00;;
15818;SDS011;8010;53.986;12.106;2023-03-30T00:20:02;9.13;;;6.00;;
15818;SDS011;8010;53.986;12.106;2023-03-30T00:22:32;8.63;;;6.13;;
15818;SDS011;8010;53.986;12.106;2023-03-30T00:24:58;8.47;;;6.50;;
15818;SDS011;8010;53.986;12.106;2023-03-30T00:27:23;10.70;;;5.90;;
15818;SDS011;8010;53.986;12.106;2023-03-30T00:29:49;7.10;;;5.47;;
15818;SDS011;8010;53.986;12.106;2023-03-30T00:32:15;8.50;;;5.80;;
15818;SDS011;8010;53.986;12.106;2023-03-30T00:34:40;7.23;;;5.53;;
15818;SDS011;8010;53.986;12.106;2023-03-30T00:37:06;7.07;;;5.27;;
15818;SDS011;8010;53.986;12.106;2023-03-30T00:39:32;7.37;;;5.23;;
15818;SDS011;8010;53.986;12.106;2023-03-30T00:41:57;8.73;;;5.43;;
15818;SDS011;8010;53.986;12.106;2023-03-30T00:47:26;9.47;;;5.47;;
15818;SDS011;8010;53.986;12.106;2023-03-30T00:49:53;8.60;;;6.30;;
15818;SDS011;8010;53.986;12.106;2023-03-30T00:52:19;8.87;;;5.90;;
15818;SDS011;8010;53.986;12.106;2023-03-30T00:54:49;9.47;;;6.17;;
15818;SDS011;8010;53.986;12.106;2023-03-30T00:57:16;9.43;;;5.93;;
15818;SDS011;8010;53.986;12.106;2023-03-30T00:59:46;9.07;;;6.30;;
15818;SDS011;8010;53.986;12.106;2023-03-30T01:02:15;9.03;;;6.37;;
15818;SDS011;8010;53.986;12.106;2023-03-30T01:04:40;9.27;;;5.77;;
15818;SDS011;8010;53.986;12.106;2023-03-30T01:07:06;9.00;;;6.30;;
15818;SDS011;8010;53.986;12.106;2023-03-30T01:09:36;8.20;;;6.30;;
15818;SDS011;8010;53.986;12.106;2023-03-30T01:12:05;9.37;;;5.93;;
15818;SDS011;8010;53.986;12.106;2023-03-30T01:14:31;8.10;;;6.07;;
15818;SDS011;8010;53.986;12.106;2023-03-30T01:17:00;7.60;;;5.87;;
15818;SDS011;8010;53.986;12.106;2023-03-30T01:23:12;7.73;;;5.90;;
15818;SDS011;8010;53.986;12.106;2023-03-30T01:29:07;8.87;;;5.90;;
15818;SDS011;8010;53.986;12.106;2023-03-30T01:34:29;8.27;;;6.20;;
15818;SDS011;8010;53.986;12.106;2023-03-30T01:45:17;11.60;;;7.33;;
15818;SDS011;8010;53.986;12.106;2023-03-30T01:47:55;9.07;;;6.77;;
15818;SDS011;8010;53.986;12.106;2023-03-30T01:50:25;11.60;;;7.37;;
15818;SDS011;8010;53.986;12.106;2023-03-30T01:52:59;11.10;;;7.03;;
15818;SDS011;8010;53.986;12.106;2023-03-30T01:58:01;14.60;;;6.97;;
15818;SDS011;8010;53.986;12.106;2023-03-30T02:00:40;10.03;;;6.77;;
15818;SDS011;8010;53.986;12.106;2023-03-30T02:03:08;10.80;;;7.57;;
15818;SDS011;8010;53.986;12.106;2023-03-30T02:05:38;9.97;;;6.87;;
15818;SDS011;8010;53.986;12.106;2023-03-30T02:08:10;11.97;;;7.33;;
15818;SDS011;8010;53.986;12.106;2023-03-30T02:10:39;8.63;;;6.67;;
15818;SDS011;8010;53.986;12.106;2023-03-30T02:13:05;9.00;;;7.10;;
15818;SDS011;8010;53.986;12.106;2023-03-30T02:15:33;12.33;;;7.57;;
15818;SDS011;8010;53.986;12.106;2023-03-30T02:18:03;11.43;;;8.03;;
15818;SDS011;8010;53.986;12.106;2023-03-30T02:20:29;12.00;;;7.20;;
15818;SDS011;8010;53.986;12.106;2023-03-30T02:22:57;11.20;;;7.67;;
15818;SDS011;8010;53.986;12.106;2023-03-30T02:25:23;10.97;;;7.77;;
15818;SDS011;8010;53.986;12.106;2023-03-30T02:27:49;10.80;;;7.40;;
15818;SDS011;8010;53.986;12.106;2023-03-30T02:30:15;13.10;;;8.33;;
15818;SDS011;8010;53.986;12.106;2023-03-30T02:32:44;11.67;;;8.03;;
15818;SDS011;8010;53.986;12.106;2023-03-30T02:40:52;12.17;;;8.00;;
15818;SDS011;8010;53.986;12.106;2023-03-30T02:48:55;12.63;;;8.47;;
15818;SDS011;8010;53.986;12.106;2023-03-30T02:51:42;12.57;;;8.57;;
15818;SDS011;8010;53.986;12.106;2023-03-30T02:56:55;12.13;;;8.60;;
15818;SDS011;8010;53.986;12.106;2023-03-30T02:59:25;13.30;;;8.73;;
15818;SDS011;8010;53.986;12.106;2023-03-30T03:02:03;9.87;;;7.70;;
15818;SDS011;8010;53.986;12.106;2023-03-30T03:04:37;11.53;;;8.63;;
15818;SDS011;8010;53.986;12.106;2023-03-30T03:07:07;13.53;;;8.90;;
15818;SDS011;8010;53.986;12.106;2023-03-30T03:09:34;13.00;;;8.27;;
15818;SDS011;8010;53.986;12.106;2023-03-30T03:12:01;14.97;;;8.40;;
15818;SDS011;8010;53.986;12.106;2023-03-30T03:14:27;12.93;;;8.53;;
15818;SDS011;8010;53.986;12.106;2023-03-30T03:16:53;14.60;;;8.63;;
15818;SDS011;8010;53.986;12.106;2023-03-30T03:19:19;11.57;;;8.13;;
15818;SDS011;8010;53.986;12.106;2023-03-30T03:21:44;14.70;;;8.57;;
15818;SDS011;8010;53.986;12.106;2023-03-30T03:24:10;12.40;;;8.60;;
15818;SDS011;8010;53.986;12.106;2023-03-30T03:26:37;12.83;;;8.63;;
15818;SDS011;8010;53.986;12.106;2023-03-30T03:29:03;13.27;;;8.70;;
15818;SDS011;8010;53.986;12.106;2023-03-30T03:31:29;11.33;;;8.40;;
15818;SDS011;8010;53.986;12.106;2023-03-30T03:33:55;11.50;;;8.00;;
15818;SDS011;8010;53.986;12.106;2023-03-30T03:36:20;12.23;;;8.47;;
15818;SDS011;8010;53.986;12.106;2023-03-30T03:38:49;13.67;;;8.83;;
15818;SDS011;8010;53.986;12.106;2023-03-30T03:41:16;14.30;;;8.73;;
15818;SDS011;8010;53.986;12.106;2023-03-30T03:43:41;11.00;;;8.17;;
15818;SDS011;8010;53.986;12.106;2023-03-30T03:46:07;11.03;;;7.73;;
15818;SDS011;8010;53.986;12.106;2023-03-30T03:48:33;14.23;;;8.53;;
15818;SDS011;8010;53.986;12.106;2023-03-30T03:50:58;13.63;;;8.50;;
15818;SDS011;8010;53.986;12.106;2023-03-30T03:53:25;12.40;;;8.67;;
15818;SDS011;8010;53.986;12.106;2023-03-30T03:55:51;13.27;;;8.10;;
15818;SDS011;8010;53.986;12.106;2023-03-30T03:58:18;10.60;;;8.00;;
15818;SDS011;8010;53.986;12.106;2023-03-30T04:00:44;11.70;;;8.10;;
15818;SDS011;8010;53.986;12.106;2023-03-30T04:03:10;11.73;;;8.13;;
15818;SDS011;8010;53.986;12.106;2023-03-30T04:05:36;12.63;;;8.37;;
15818;SDS011;8010;53.986;12.106;2023-03-30T04:08:02;15.07;;;8.33;;
15818;SDS011;8010;53.986;12.106;2023-03-30T04:10:28;12.70;;;8.07;;
15818;SDS011;8010;53.986;12.106;2023-03-30T04:12:54;11.30;;;7.90;;
15818;SDS011;8010;53.986;12.106;2023-03-30T04:15:21;11.17;;;8.20;;
15818;SDS011;8010;53.986;12.106;2023-03-30T04:17:47;11.27;;;7.77;;
15818;SDS011;8010;53.986;12.106;2023-03-30T04:20:14;10.27;;;7.77;;
15818;SDS011;8010;53.986;12.106;2023-03-30T04:22:41;10.80;;;7.80;;
15818;SDS011;8010;53.986;12.106;2023-03-30T04:25:07;11.67;;;8.10;;
15818;SDS011;8010;53.986;12.106;2023-03-30T04:27:35;11.67;;;7.93;;
15818;SDS011;8010;53.986;12.106;2023-03-30T04:30:02;11.03;;;8.27;;
15818;SDS011;8010;53.986;12.106;2023-03-30T04:32:29;12.07;;;7.50;;
15818;SDS011;8010;53.986;12.106;2023-03-30T04:34:58;9.37;;;6.93;;
15818;SDS011;8010;53.986;12.106;2023-03-30T04:37:25;11.90;;;7.87;;
15818;SDS011;8010;53.986;12.106;2023-03-30T04:39:55;10.67;;;7.87;;
15818;SDS011;8010;53.986;12.106;2023-03-30T04:42:25;11.97;;;8.20;;
15818;SDS011;8010;53.986;12.106;2023-03-30T04:44:58;10.53;;;7.77;;
15818;SDS011;8010;53.986;12.106;2023-03-30T04:47:25;13.43;;;8.80;;
15818;SDS011;8010;53.986;12.106;2023-03-30T04:49:51;11.73;;;8.10;;
15818;SDS011;8010;53.986;12.106;2023-03-30T04:52:16;9.20;;;6.83;;
15818;SDS011;8010;53.986;12.106;2023-03-30T04:54:43;12.90;;;8.87;;
15818;SDS011;8010;53.986;12.106;2023-03-30T04:57:08;9.77;;;7.13;;
15818;SDS011;8010;53.986;12.106;2023-03-30T04:59:34;12.60;;;8.70;;
15818;SDS011;8010;53.986;12.106;2023-03-30T05:02:00;14.30;;;7.87;;
15818;SDS011;8010;53.986;12.106;2023-03-30T05:04:27;11.60;;;7.57;;
15818;SDS011;8010;53.986;12.106;2023-03-30T05:06:53;13.23;;;8.93;;
15818;SDS011;8010;53.986;12.106;2023-03-30T05:09:19;12.30;;;9.67;;
15818;SDS011;8010;53.986;12.106;2023-03-30T05:11:45;13.37;;;9.27;;
15818;SDS011;8010;53.986;12.106;2023-03-30T05:14:11;11.13;;;7.77;;
15818;SDS011;8010;53.986;12.106;2023-03-30T05:16:37;12.67;;;8.07;;
15818;SDS011;8010;53.986;12.106;2023-03-30T05:19:03;11.67;;;7.90;;
15818;SDS011;8010;53.986;12.106;2023-03-30T05:21:29;14.87;;;8.23;;
15818;SDS011;8010;53.986;12.106;2023-03-30T05:23:55;9.70;;;7.53;;
15818;SDS011;8010;53.986;12.106;2023-03-30T05:26:21;10.30;;;7.63;;
15818;SDS011;8010;53.986;12.106;2023-03-30T05:28:47;10.63;;;8.43;;
15818;SDS011;8010;53.986;12.106;2023-03-30T05:31:13;11.50;;;8.30;;
15818;SDS011;8010;53.986;12.106;2023-03-30T05:33:39;12.20;;;7.00;;
15818;SDS011;8010;53.986;12.106;2023-03-30T05:36:05;12.93;;;8.53;;
15818;SDS011;8010;53.986;12.106;2023-03-30T05:38:31;10.67;;;7.87;;
15818;SDS011;8010;53.986;12.106;2023-03-30T05:40:56;11.87;;;6.97;;
15818;SDS011;8010;53.986;12.106;2023-03-30T05:43:22;9.73;;;7.27;;
15818;SDS011;8010;53.986;12.106;2023-03-30T05:45:48;11.43;;;7.23;;
15818;SDS011;8010;53.986;12.106;2023-03-30T05:48:14;9.27;;;6.87;;
15818;SDS011;8010;53.986;12.106;2023-03-30T05:50:39;12.20;;;7.87;;
15818;SDS011;8010;53.986;12.106;2023-03-30T05:53:06;12.43;;;7.90;;
15818;SDS011;8010;53.986;12.106;2023-03-30T05:55:32;9.83;;;7.63;;
15818;SDS011;8010;53.986;12.106;2023-03-30T05:57:58;10.97;;;7.40;;
15818;SDS011;8010;53.986;12.106;2023-03-30T06:00:24;9.97;;;7.10;;
15818;SDS011;8010;53.986;12.106;2023-03-30T06:02:50;10.27;;;7.43;;
15818;SDS011;8010;53.986;12.106;2023-03-30T06:05:16;11.20;;;7.73;;
15818;SDS011;8010;53.986;12.106;2023-03-30T06:07:42;9.60;;;6.77;;
15818;SDS011;8010;53.986;12.106;2023-03-30T06:10:09;9.17;;;7.33;;
15818;SDS011;8010;53.986;12.106;2023-03-30T06:12:35;9.43;;;6.83;;
15818;SDS011;8010;53.986;12.106;2023-03-30T06:15:03;12.33;;;6.97;;
15818;SDS011;8010;53.986;12.106;2023-03-30T06:17:29;9.20;;;6.57;;
15818;SDS011;8010;53.986;12.106;2023-03-30T06:19:55;11.07;;;7.27;;
15818;SDS011;8010;53.986;12.106;2023-03-30T06:22:21;11.13;;;7.67;;
15818;SDS011;8010;53.986;12.106;2023-03-30T06:24:47;13.13;;;7.70;;
15818;SDS011;8010;53.986;12.106;2023-03-30T06:27:13;13.23;;;8.20;;
15818;SDS011;8010;53.986;12.106;2023-03-30T06:29:38;10.80;;;7.33;;
15818;SDS011;8010;53.986;12.106;2023-03-30T06:32:04;11.27;;;7.37;;
15818;SDS011;8010;53.986;12.106;2023-03-30T06:34:30;9.33;;;6.70;;
15818;SDS011;8010;53.986;12.106;2023-03-30T06:36:56;11.43;;;7.60;;
15818;SDS011;8010;53.986;12.106;2023-03-30T06:39:21;9.70;;;7.13;;
15818;SDS011;8010;53.986;12.106;2023-03-30T06:41:47;9.67;;;7.00;;
15818;SDS011;8010;53.986;12.106;2023-03-30T06:44:13;10.27;;;7.40;;
15818;SDS011;8010;53.986;12.106;2023-03-30T06:46:39;9.60;;;7.33;;
15818;SDS011;8010;53.986;12.106;2023-03-30T06:49:05;10.63;;;7.07;;
15818;SDS011;8010;53.986;12.106;2023-03-30T06:51:31;9.53;;;7.13;;
15818;SDS011;8010;53.986;12.106;2023-03-30T06:53:59;10.07;;;6.50;;
15818;SDS011;8010;53.986;12.106;2023-03-30T06:56:25;9.03;;;7.33;;
15818;SDS011;8010;53.986;12.106;2023-03-30T06:58:51;10.20;;;6.10;;
15818;SDS011;8010;53.986;12.106;2023-03-30T07:01:17;8.43;;;6.40;;
15818;SDS011;8010;53.986;12.106;2023-03-30T07:03:42;9.80;;;6.43;;
15818;SDS011;8010;53.986;12.106;2023-03-30T07:06:09;7.70;;;5.80;;
15818;SDS011;8010;53.986;12.106;2023-03-30T07:08:34;10.27;;;6.80;;
15818;SDS011;8010;53.986;12.106;2023-03-30T07:11:01;10.37;;;7.23;;
15818;SDS011;8010;53.986;12.106;2023-03-30T07:13:30;8.73;;;6.40;;
15818;SDS011;8010;53.986;12.106;2023-03-30T07:15:56;9.93;;;6.10;;
15818;SDS011;8010;53.986;12.106;2023-03-30T07:18:22;11.00;;;6.13;;
15818;SDS011;8010;53.986;12.106;2023-03-30T07:20:48;8.20;;;6.40;;
15818;SDS011;8010;53.986;12.106;2023-03-30T07:23:15;9.63;;;6.57;;
15818;SDS011;8010;53.986;12.106;2023-03-30T07:25:41;9.37;;;5.87;;
15818;SDS011;8010;53.986;12.106;2023-03-30T07:28:08;8.47;;;6.23;;
15818;SDS011;8010;53.986;12.106;2023-03-30T07:30:34;10.80;;;6.30;;
15818;SDS011;8010;53.986;12.106;2023-03-30T07:33:00;8.23;;;6.30;;
15818;SDS011;8010;53.986;12.106;2023-03-30T07:35:26;9.90;;;6.50;;
15818;SDS011;8010;53.986;12.106;2023-03-30T07:37:52;13.83;;;7.37;;
15818;SDS011;8010;53.986;12.106;2023-03-30T07:40:18;9.40;;;6.20;;
15818;SDS011;8010;53.986;12.106;2023-03-30T07:42:45;10.23;;;6.53;;
15818;SDS011;8010;53.986;12.106;2023-03-30T07:45:11;9.87;;;6.77;;
15818;SDS011;8010;53.986;12.106;2023-03-30T07:47:37;9.17;;;6.27;;
15818;SDS011;8010;53.986;12.106;2023-03-30T07:50:03;9.33;;;6.37;;
15818;SDS011;8010;53.986;12.106;2023-03-30T07:52:30;8.73;;;6.63;;
15818;SDS011;8010;53.986;12.106;2023-03-30T07:54:56;8.07;;;6.13;;
15818;SDS011;8010;53.986;12.106;2023-03-30T07:57:22;9.53;;;7.00;;
15818;SDS011;8010;53.986;12.106;2023-03-30T07:59:48;10.27;;;7.00;;
15818;SDS011;8010;53.986;12.106;2023-03-30T08:02:14;11.40;;;6.00;;
15818;SDS011;8010;53.986;12.106;2023-03-30T08:04:40;7.67;;;6.20;;
15818;SDS011;8010;53.986;12.106;2023-03-30T08:07:05;9.87;;;5.70;;
15818;SDS011;8010;53.986;12.106;2023-03-30T08:09:31;9.23;;;5.90;;
15818;SDS011;8010;53.986;12.106;2023-03-30T08:11:58;8.17;;;5.80;;
15818;SDS011;8010;53.986;12.106;2023-03-30T08:14:24;9.87;;;6.07;;
15818;SDS011;8010;53.986;12.106;2023-03-30T08:16:51;7.50;;;5.40;;
15818;SDS011;8010;53.986;12.106;2023-03-30T08:19:17;9.43;;;6.30;;
15818;SDS011;8010;53.986;12.106;2023-03-30T08:21:43;7.97;;;5.80;;
15818;SDS011;8010;53.986;12.106;2023-03-30T08:24:09;9.10;;;5.47;;
15818;SDS011;8010;53.986;12.106;2023-03-30T08:26:35;9.33;;;5.57;;
15818;SDS011;8010;53.986;12.106;2023-03-30T08:29:01;9.13;;;5.57;;
15818;SDS011;8010;53.986;12.106;2023-03-30T08:31:26;6.93;;;4.97;;
15818;SDS011;8010;53.986;12.106;2023-03-30T08:33:52;10.27;;;5.57;;
15818;SDS011;8010;53.986;12.106;2023-03-30T08:36:17;7.23;;;5.00;;
15818;SDS011;8010;53.986;12.106;2023-03-30T08:38:44;32.73;;;8.00;;
15818;SDS011;8010;53.986;12.106;2023-03-30T08:46:24;7.77;;;5.53;;
15818;SDS011;8010;53.986;12.106;2023-03-30T08:48:50;6.60;;;5.13;;
15818;SDS011;8010;53.986;12.106;2023-03-30T08:51:19;8.87;;;4.90;;
15818;SDS011;8010;53.986;12.106;2023-03-30T08:53:56;6.47;;;4.73;;
15818;SDS011;8010;53.986;12.106;2023-03-30T08:56:26;7.43;;;4.80;;
15818;SDS011;8010;53.986;12.106;2023-03-30T09:02:03;7.67;;;4.97;;
15818;SDS011;8010;53.986;12.106;2023-03-30T09:04:51;6.43;;;4.33;;
15818;SDS011;8010;53.986;12.106;2023-03-30T09:07:37;6.30;;;4.57;;
15818;SDS011;8010;53.986;12.106;2023-03-30T09:10:12;6.77;;;4.80;;
15818;SDS011;8010;53.986;12.106;2023-03-30T09:12:40;6.03;;;4.43;;
15818;SDS011;8010;53.986;12.106;2023-03-30T09:15:16;5.63;;;4.57;;
15818;SDS011;8010;53.986;12.106;2023-03-30T09:20:19;6.20;;;4.93;;
15818;SDS011;8010;53.986;12.106;2023-03-30T09:22:49;6.17;;;4.20;;
15818;SDS011;8010;53.986;12.106;2023-03-30T09:28:18;6.97;;;3.77;;
15818;SDS011;8010;53.986;12.106;2023-03-30T09:31:01;5.73;;;4.07;;
15818;SDS011;8010;53.986;12.106;2023-03-30T09:38:59;5.90;;;4.20;;
15818;SDS011;8010;53.986;12.106;2023-03-30T09:44:06;4.20;;;3.70;;
15818;SDS011;8010;53.986;12.106;2023-03-30T09:46:51;7.70;;;4.20;;
15818;SDS011;8010;53.986;12.106;2023-03-30T09:49:21;5.13;;;3.47;;
15818;SDS011;8010;53.986;12.106;2023-03-30T09:52:03;6.37;;;3.83;;
15818;SDS011;8010;53.986;12.106;2023-03-30T09:54:35;5.90;;;3.80;;
15818;SDS011;8010;53.986;12.106;2023-03-30T09:57:01;7.70;;;4.30;;
15818;SDS011;8010;53.986;12.106;2023-03-30T09:59:36;6.67;;;3.93;;
15818;SDS011;8010;53.986;12.106;2023-03-30T10:07:22;8.57;;;4.37;;
15818;SDS011;8010;53.986;12.106;2023-03-30T10:09:53;7.27;;;3.90;;
15818;SDS011;8010;53.986;12.106;2023-03-30T10:12:19;5.63;;;3.60;;
15818;SDS011;8010;53.986;12.106;2023-03-30T10:14:52;7.60;;;4.17;;
15818;SDS011;8010;53.986;12.106;2023-03-30T10:17:21;5.77;;;3.70;;
15818;SDS011;8010;53.986;12.106;2023-03-30T10:19:50;6.20;;;3.83;;
15818;SDS011;8010;53.986;12.106;2023-03-30T10:22:18;6.20;;;3.47;;
15818;SDS011;8010;53.986;12.106;2023-03-30T10:24:51;11.20;;;3.97;;
15818;SDS011;8010;53.986;12.106;2023-03-30T10:27:24;6.67;;;3.60;;
15818;SDS011;8010;53.986;12.106;2023-03-30T10:29:57;6.97;;;3.30;;
15818;SDS011;8010;53.986;12.106;2023-03-30T10:32:36;4.93;;;3.37;;
15818;SDS011;8010;53.986;12.106;2023-03-30T10:35:01;8.53;;;3.30;;
15818;SDS011;8010;53.986;12.106;2023-03-30T10:37:37;7.07;;;3.47;;
15818;SDS011;8010;53.986;12.106;2023-03-30T10:42:41;6.20;;;3.87;;
15818;SDS011;8010;53.986;12.106;2023-03-30T10:45:13;5.47;;;3.30;;
15818;SDS011;8010;53.986;12.106;2023-03-30T10:47:47;8.67;;;3.20;;
15818;SDS011;8010;53.986;12.106;2023-03-30T10:59:03;7.10;;;3.63;;
15818;SDS011;8010;53.986;12.106;2023-03-30T11:04:56;5.37;;;3.23;;
15818;SDS011;8010;53.986;12.106;2023-03-30T11:07:40;5.33;;;3.13;;
15818;SDS011;8010;53.986;12.106;2023-03-30T11:10:19;7.83;;;3.20;;
15818;SDS011;8010;53.986;12.106;2023-03-30T11:15:41;5.40;;;2.93;;
15818;SDS011;8010;53.986;12.106;2023-03-30T11:18:22;5.37;;;2.97;;
15818;SDS011;8010;53.986;12.106;2023-03-30T11:21:06;4.93;;;3.30;;
15818;SDS011;8010;53.986;12.106;2023-03-30T11:26:37;3.80;;;2.67;;
15818;SDS011;8010;53.986;12.106;2023-03-30T11:29:12;4.43;;;3.00;;
15818;SDS011;8010;53.986;12.106;2023-03-30T11:32:09;4.63;;;2.73;;
15818;SDS011;8010;53.986;12.106;2023-03-30T11:34:52;6.37;;;3.53;;
15818;SDS011;8010;53.986;12.106;2023-03-30T11:40:21;2.83;;;2.50;;
15818;SDS011;8010;53.986;12.106;2023-03-30T11:42:51;4.53;;;2.80;;
15818;SDS011;8010;53.986;12.106;2023-03-30T12:04:11;5.10;;;3.73;;
15818;SDS011;8010;53.986;12.106;2023-03-30T12:06:40;7.30;;;4.17;;
15818;SDS011;8010;53.986;12.106;2023-03-30T12:09:27;6.53;;;3.93;;
15818;SDS011;8010;53.986;12.106;2023-03-30T12:14:51;10.33;;;4.10;;
15818;SDS011;8010;53.986;12.106;2023-03-30T12:20:20;6.73;;;3.30;;
15818;SDS011;8010;53.986;12.106;2023-03-30T12:23:03;8.00;;;3.40;;
15818;SDS011;8010;53.986;12.106;2023-03-30T12:31:23;4.03;;;3.03;;
15818;SDS011;8010;53.986;12.106;2023-03-30T12:34:12;6.67;;;3.63;;
15818;SDS011;8010;53.986;12.106;2023-03-30T12:39:26;4.90;;;3.17;;
15818;SDS011;8010;53.986;12.106;2023-03-30T12:42:07;6.07;;;3.47;;
15818;SDS011;8010;53.986;12.106;2023-03-30T13:01:22;3.93;;;1.67;;
15818;SDS011;8010;53.986;12.106;2023-03-30T13:04:05;5.60;;;2.50;;
15818;SDS011;8010;53.986;12.106;2023-03-30T13:06:35;4.67;;;2.33;;
15818;SDS011;8010;53.986;12.106;2023-03-30T13:11:42;2.93;;;2.43;;
15818;SDS011;8010;53.986;12.106;2023-03-30T13:24:41;6.33;;;3.23;;
15818;SDS011;8010;53.986;12.106;2023-03-30T13:29:38;2.77;;;2.07;;
15818;SDS011;8010;53.986;12.106;2023-03-30T13:32:06;4.17;;;2.23;;
15818;SDS011;8010;53.986;12.106;2023-03-30T13:34:53;5.77;;;2.77;;
15818;SDS011;8010;53.986;12.106;2023-03-30T13:40:27;6.33;;;2.93;;
15818;SDS011;8010;53.986;12.106;2023-03-30T13:51:13;4.03;;;1.90;;
15818;SDS011;8010;53.986;12.106;2023-03-30T13:53:43;5.80;;;2.20;;
15818;SDS011;8010;53.986;12.106;2023-03-30T13:56:14;2.93;;;1.80;;
15818;SDS011;8010;53.986;12.106;2023-03-30T13:58:40;4.07;;;1.77;;
15818;SDS011;8010;53.986;12.106;2023-03-30T14:01:21;2.93;;;1.40;;
15818;SDS011;8010;53.986;12.106;2023-03-30T14:03:48;4.17;;;1.40;;
15818;SDS011;8010;53.986;12.106;2023-03-30T14:06:19;3.30;;;1.30;;
15818;SDS011;8010;53.986;12.106;2023-03-30T14:08:47;3.17;;;1.33;;
15818;SDS011;8010;53.986;12.106;2023-03-30T14:13:51;2.40;;;1.33;;
15818;SDS011;8010;53.986;12.106;2023-03-30T14:16:21;1.23;;;1.10;;
15818;SDS011;8010;53.986;12.106;2023-03-30T14:18:51;2.53;;;1.20;;
15818;SDS011;8010;53.986;12.106;2023-03-30T14:21:46;3.80;;;1.30;;
15818;SDS011;8010;53.986;12.106;2023-03-30T14:24:17;3.17;;;1.30;;
15818;SDS011;8010;53.986;12.106;2023-03-30T14:26:50;4.57;;;1.60;;
15818;SDS011;8010;53.986;12.106;2023-03-30T14:29:16;4.27;;;1.80;;
15818;SDS011;8010;53.986;12.106;2023-03-30T14:31:44;5.80;;;1.80;;
15818;SDS011;8010;53.986;12.106;2023-03-30T14:34:20;5.57;;;1.70;;
15818;SDS011;8010;53.986;12.106;2023-03-30T14:37:00;5.00;;;1.57;;
15818;SDS011;8010;53.986;12.106;2023-03-30T14:39:29;6.53;;;1.50;;
15818;SDS011;8010;53.986;12.106;2023-03-30T14:41:56;4.77;;;2.13;;
15818;SDS011;8010;53.986;12.106;2023-03-30T14:44:32;4.57;;;1.57;;
15818;SDS011;8010;53.986;12.106;2023-03-30T14:47:03;9.97;;;2.17;;
15818;SDS011;8010;53.986;12.106;2023-03-30T14:49:29;6.43;;;2.10;;
15818;SDS011;8010;53.986;12.106;2023-03-30T14:51:59;6.97;;;2.10;;
15818;SDS011;8010;53.986;12.106;2023-03-30T14:54:33;6.40;;;1.70;;
15818;SDS011;8010;53.986;12.106;2023-03-30T14:57:00;9.03;;;2.60;;
15818;SDS011;8010;53.986;12.106;2023-03-30T14:59:29;4.43;;;1.80;;
15818;SDS011;8010;53.986;12.106;2023-03-30T15:01:57;6.80;;;1.70;;
15818;SDS011;8010;53.986;12.106;2023-03-30T15:04:24;6.80;;;1.67;;
15818;SDS011;8010;53.986;12.106;2023-03-30T15:06:53;8.90;;;2.07;;
15818;SDS011;8010;53.986;12.106;2023-03-30T15:09:20;7.27;;;2.03;;
15818;SDS011;8010;53.986;12.106;2023-03-30T15:11:49;4.07;;;1.60;;
15818;SDS011;8010;53.986;12.106;2023-03-30T15:14:21;5.60;;;1.53;;
15818;SDS011;8010;53.986;12.106;2023-03-30T15:16:48;3.07;;;1.30;;
15818;SDS011;8010;53.986;12.106;2023-03-30T15:19:32;4.57;;;1.50;;
15818;SDS011;8010;53.986;12.106;2023-03-30T15:22:02;4.03;;;1.40;;
15818;SDS011;8010;53.986;12.106;2023-03-30T15:24:35;5.67;;;1.50;;
15818;SDS011;8010;53.986;12.106;2023-03-30T15:27:03;3.67;;;1.27;;
15818;SDS011;8010;53.986;12.106;2023-03-30T15:29:30;4.80;;;2.17;;
15818;SDS011;8010;53.986;12.106;2023-03-30T15:34:58;7.47;;;1.40;;
15818;SDS011;8010;53.986;12.106;2023-03-30T15:37:28;5.53;;;1.70;;
15818;SDS011;8010;53.986;12.106;2023-03-30T15:39:55;4.63;;;1.10;;
15818;SDS011;8010;53.986;12.106;2023-03-30T15:42:25;5.97;;;1.40;;
15818;SDS011;8010;53.986;12.106;2023-03-30T15:45:08;4.57;;;1.50;;
15818;SDS011;8010;53.986;12.106;2023-03-30T15:47:36;5.63;;;1.60;;
15818;SDS011;8010;53.986;12.106;2023-03-30T15:50:09;4.73;;;1.50;;
15818;SDS011;8010;53.986;12.106;2023-03-30T15:52:40;6.07;;;2.00;;
15818;SDS011;8010;53.986;12.106;2023-03-30T15:55:07;7.17;;;1.60;;
15818;SDS011;8010;53.986;12.106;2023-03-30T15:57:52;5.27;;;1.50;;
15818;SDS011;8010;53.986;12.106;2023-03-30T16:00:18;5.63;;;1.50;;
15818;SDS011;8010;53.986;12.106;2023-03-30T16:02:54;8.10;;;1.50;;
15818;SDS011;8010;53.986;12.106;2023-03-30T16:05:28;9.27;;;1.60;;
15818;SDS011;8010;53.986;12.106;2023-03-30T16:07:55;4.90;;;1.87;;
15818;SDS011;8010;53.986;12.106;2023-03-30T16:10:22;6.03;;;1.63;;
15818;SDS011;8010;53.986;12.106;2023-03-30T16:12:51;6.37;;;1.60;;
15818;SDS011;8010;53.986;12.106;2023-03-30T16:15:22;6.70;;;1.57;;
15818;SDS011;8010;53.986;12.106;2023-03-30T16:17:52;7.57;;;1.33;;
15818;SDS011;8010;53.986;12.106;2023-03-30T16:20:19;12.10;;;2.37;;
15818;SDS011;8010;53.986;12.106;2023-03-30T16:22:47;5.27;;;1.37;;
15818;SDS011;8010;53.986;12.106;2023-03-30T16:25:13;7.67;;;2.07;;
15818;SDS011;8010;53.986;12.106;2023-03-30T16:27:40;6.63;;;2.00;;
15818;SDS011;8010;53.986;12.106;2023-03-30T16:32:58;6.30;;;1.17;;
15818;SDS011;8010;53.986;12.106;2023-03-30T16:35:24;3.43;;;0.80;;
15818;SDS011;8010;53.986;12.106;2023-03-30T16:37:50;5.03;;;1.20;;
15818;SDS011;8010;53.986;12.106;2023-03-30T16:40:25;7.63;;;1.47;;
15818;SDS011;8010;53.986;12.106;2023-03-30T16:43:05;4.07;;;1.03;;
15818;SDS011;8010;53.986;12.106;2023-03-30T16:45:31;6.70;;;1.07;;
15818;SDS011;8010;53.986;12.106;2023-03-30T16:47:58;7.37;;;1.20;;
15818;SDS011;8010;53.986;12.106;2023-03-30T16:50:33;5.23;;;1.17;;
15818;SDS011;8010;53.986;12.106;2023-03-30T16:53:02;8.50;;;1.63;;
15818;SDS011;8010;53.986;12.106;2023-03-30T16:55:29;4.97;;;1.17;;
15818;SDS011;8010;53.986;12.106;2023-03-30T16:57:55;3.57;;;1.00;;
15818;SDS011;8010;53.986;12.106;2023-03-30T17:00:25;4.20;;;0.97;;
15818;SDS011;8010;53.986;12.106;2023-03-30T17:02:55;7.30;;;1.03;;
15818;SDS011;8010;53.986;12.106;2023-03-30T17:05:21;4.97;;;1.00;;
15818;SDS011;8010;53.986;12.106;2023-03-30T17:07:47;4.23;;;1.00;;
15818;SDS011;8010;53.986;12.106;2023-03-30T17:10:23;4.20;;;0.90;;
15818;SDS011;8010;53.986;12.106;2023-03-30T17:12:51;7.23;;;1.07;;
15818;SDS011;8010;53.986;12.106;2023-03-30T17:15:18;7.53;;;1.33;;
15818;SDS011;8010;53.986;12.106;2023-03-30T17:17:45;3.90;;;0.80;;
15818;SDS011;8010;53.986;12.106;2023-03-30T17:20:20;4.60;;;1.13;;
15818;SDS011;8010;53.986;12.106;2023-03-30T17:23:03;5.23;;;0.83;;
15818;SDS011;8010;53.986;12.106;2023-03-30T17:25:29;3.30;;;1.10;;
15818;SDS011;8010;53.986;12.106;2023-03-30T17:27:55;3.80;;;0.87;;
15818;SDS011;8010;53.986;12.106;2023-03-30T17:30:22;6.83;;;0.90;;
15818;SDS011;8010;53.986;12.106;2023-03-30T17:32:49;7.23;;;1.27;;
15818;SDS011;8010;53.986;12.106;2023-03-30T17:35:16;4.90;;;1.17;;
15818;SDS011;8010;53.986;12.106;2023-03-30T17:37:42;4.27;;;1.10;;
15818;SDS011;8010;53.986;12.106;2023-03-30T17:40:11;6.97;;;1.10;;
15818;SDS011;8010;53.986;12.106;2023-03-30T17:42:42;5.50;;;1.47;;
15818;SDS011;8010;53.986;12.106;2023-03-30T17:45:09;5.00;;;1.00;;
15818;SDS011;8010;53.986;12.106;2023-03-30T17:47:35;4.93;;;1.20;;